Aérodrome :







RETROUVEZ-NOUS SUR...

 
LOGIN :

S'inscrire | Disclaimer

   EN    FR    IT 

 









Légende :    VFR   VFR Marginal   IFR   IFR Intensif   IFR Très Intensif
Visi : 
Plafond : 
>= 8 km
>= 3000ft
5 à 8 km
1000 à 3000 ft
1500m à 5 km
500 à 1000 ft
800 à 1500m
200 à 500 ft
< 800m
< 200 ft
Symboles :   Orages  Brouillard  Fortes neiges  Fortes précipitations  Vent > 20 kt






- Altitude de l'aérodrome : 496 ft
- Code IATA : YQX


CYQX - Gander

DERNIER METAR :
  • 261637Z 03005KT 7SM -SHSN OVC006 M02/M03 A2995 RMK SF8 CVCTV CLD EMBD SLP153

METARs EXPIRÉS :
  • 261600Z CCA 07004KT 030V090 6SM -SHSN OVC004 M02/M03 A2996 RMK SF8 VIS HIER NE VIS LWR SE CVCTV CLD EMBD SLP154
  • 261521Z 04006KT 8SM -SHSN OVC004 M02/M03 A2996 RMK SF8 CVCTV CLD EMBD SLP156
  • 261500Z 05007KT 12SM -SHSN OVC005 M02/M03 A2997 RMK SF8 CVCTV CLD EMBD SLP158
  • 261400Z 08007KT 12SM -SHSN OVC006 M02/M03 A2997 RMK SF8 CVCTV CLD EMBD SLP158

TAF AMD TAF CYQX
Valide du 26 à 13h jusqu'au 27 à 12h UTC


261316Z 2613/2712 06008KT 6SM BR BKN004 OVC008
BECMG 2613/2614 11/2SM BR BKN001 OVC008
FM261400 05006KT 6SM BR BKN008 OVC015
TEMPO 2614/2616 2SM BR BKN003 OVC010
PROB30 2614/2616 1SM -SN -FZDZ BR
FM261600 02010KT P6SM BKN008 OVC015
TEMPO 2616/2709 5SM -SN OVC005
PROB30 2616/2709 1SM -SN -FZDZ BR BKN003 OVC005
FM270900 02008KT P6SM SCT008 OVC015 RMK NXT FCST BY 261800Z



MET'MAP, la Météo Aéronautique d'un coup d'oeil ! - Copyright ORBIFLY Décembre 2007 - Disclaimer

ORBIFLY MET'MAP TEAM :

Programmation & Développement : Alexandra Zaïnal
Sur une idée originale de : Baudouin d'Aumeries
Assistance à la programmation : Marc-Olivier Méhu
Soutien technique & logistique : Manuel Goepfert

Contact : metmap@orbifly.com




SOURCES & CREDITS :

   NOAA